Time;durP1;ratioP1;P1;durP2;ratioP2;P2;SDS_P1;SDS_P2;PMS_P1;PMS_P2;Temp;Humidity;BMP_temperature;BMP_pressure;BME280_temperature;BME280_humidity;BME280_pressure;Samples;Min_cycle;Max_cycle;Signal;HPM_P1;HPM_P2
2021/12/24 00:02:00;;;;;;;66.18;23.48;;;3.30;99.90;;;;;;5009428;28;20065;-54
2021/12/24 00:04:26;;;;;;;56.90;22.98;;;3.40;99.90;;;;;;5010147;28;20061;-54
2021/12/24 00:06:52;;;;;;;61.63;23.58;;;3.40;99.90;;;;;;5009335;28;20748;-58
2021/12/24 00:09:25;;;;;;;64.72;23.15;;;3.50;99.90;;;;;;5006551;28;20179;-56
2021/12/24 00:11:55;;;;;;;58.45;21.95;;;3.40;99.90;;;;;;5008574;28;20507;-57
2021/12/24 00:14:23;;;;;;;66.95;23.85;;;3.40;99.90;;;;;;5009811;28;20109;-57
2021/12/24 00:16:53;;;;;;;64.80;23.33;;;3.50;99.90;;;;;;5007916;28;20376;-58
2021/12/24 00:35:32;;;;;;;53.85;21.35;;;3.70;99.90;;;;;;4998260;28;20064;-59
2021/12/24 00:38:03;;;;;;;48.67;19.95;;;3.70;99.90;;;;;;4991487;28;20113;-58
2021/12/24 00:40:34;;;;;;;43.30;19.60;;;3.70;99.90;;;;;;4989539;28;20041;-58
2021/12/24 00:43:00;;;;;;;51.70;21.45;;;3.80;99.90;;;;;;4987184;28;20507;-59
2021/12/24 00:45:29;;;;;;;49.03;21.08;;;3.80;99.90;;;;;;4995073;28;20459;-58
2021/12/24 00:47:56;;;;;;;49.00;21.33;;;3.80;99.90;;;;;;4993162;28;20030;-58
2021/12/24 00:50:25;;;;;;;49.00;20.48;;;3.80;99.90;;;;;;4998382;28;20038;-61
2021/12/24 00:53:01;;;;;;;45.05;18.58;;;3.80;99.90;;;;;;4985249;28;20103;-58
2021/12/24 00:55:28;;;;;;;46.90;20.27;;;3.90;99.90;;;;;;4985461;28;20038;-60
2021/12/24 00:58:12;;;;;;;47.55;20.02;;;3.90;99.90;;;;;;4986028;28;20042;-58
2021/12/24 01:00:39;;;;;;;40.85;18.92;;;3.90;99.90;;;;;;4992425;28;20030;-58
2021/12/24 01:03:12;;;;;;;52.83;21.40;;;3.90;99.90;;;;;;5000735;28;20113;-58
2021/12/24 01:05:39;;;;;;;52.05;21.83;;;3.90;99.90;;;;;;4991230;28;20038;-59
2021/12/24 01:08:06;;;;;;;46.83;20.42;;;3.90;99.90;;;;;;4985617;28;20061;-58
2021/12/24 01:10:35;;;;;;;50.75;21.90;;;4.00;99.90;;;;;;4997078;28;20045;-59
2021/12/24 01:13:02;;;;;;;48.83;21.55;;;3.90;99.90;;;;;;5008534;28;20495;-58
2021/12/24 01:15:29;;;;;;;49.95;21.38;;;3.90;99.90;;;;;;5009077;28;20098;-59
2021/12/24 01:20:43;;;;;;;46.05;20.50;;;4.00;99.90;;;;;;5009312;28;20034;-59
2021/12/24 01:25:57;;;;;;;45.13;19.73;;;4.10;99.90;;;;;;5008830;28;20030;-60
2021/12/24 01:44:33;;;;;;;36.63;17.52;;;4.20;99.90;;;;;;5011188;28;20057;-58
2021/12/24 01:47:00;;;;;;;40.75;18.50;;;4.10;99.90;;;;;;4996758;28;20482;-58
2021/12/24 01:49:26;;;;;;;36.60;16.65;;;4.20;99.90;;;;;;4998534;28;20030;-56
2021/12/24 01:51:53;;;;;;;40.97;18.00;;;4.20;99.90;;;;;;5004696;28;20073;-58
2021/12/24 01:54:20;;;;;;;40.38;18.35;;;4.20;99.90;;;;;;4992041;28;20072;-57
2021/12/24 01:56:47;;;;;;;36.97;17.17;;;4.20;99.90;;;;;;4991814;28;20484;-56
2021/12/24 01:59:13;;;;;;;39.30;17.63;;;4.20;99.90;;;;;;5005798;28;20030;-58
2021/12/24 02:01:39;;;;;;;40.85;18.38;;;4.30;99.90;;;;;;5011603;28;20117;-59
2021/12/24 02:04:05;;;;;;;37.47;16.00;;;4.30;99.90;;;;;;4998614;28;20470;-58
2021/12/24 02:06:32;;;;;;;36.58;15.77;;;4.30;99.90;;;;;;4992889;28;20037;-60
2021/12/24 02:08:57;;;;;;;31.90;15.80;;;4.30;99.90;;;;;;5005447;28;20030;-58
2021/12/24 02:11:24;;;;;;;34.22;15.82;;;4.30;99.90;;;;;;4993704;28;20083;-58
2021/12/24 02:13:50;;;;;;;36.30;15.55;;;4.30;99.90;;;;;;4991329;28;20061;-58
2021/12/24 02:28:17;;;;;;;31.90;16.02;;;4.40;99.90;;;;;;4997274;28;20484;-57
2021/12/24 02:29:57;;;;;;;28.40;14.07;;;4.40;99.90;;;;;;4996304;28;20380;-58
2021/12/24 02:32:23;;;;;;;36.55;16.90;;;4.30;99.90;;;;;;5008688;28;20033;-58
2021/12/24 02:34:49;;;;;;;28.80;14.82;;;4.40;99.90;;;;;;4991981;28;20061;-56
2021/12/24 02:37:15;;;;;;;30.15;15.38;;;4.40;99.90;;;;;;5006652;28;20075;-56
2021/12/24 02:39:41;;;;;;;31.85;16.08;;;4.50;99.90;;;;;;4997394;28;21318;-57
2021/12/24 02:42:21;;;;;;;32.85;16.13;;;4.40;99.90;;;;;;4991602;28;20830;-57
2021/12/24 02:44:49;;;;;;;28.30;14.52;;;4.40;99.90;;;;;;4992099;28;20064;-58
2021/12/24 02:47:40;;;;;;;32.28;15.15;;;4.40;99.90;;;;;;5004943;28;20041;-58
2021/12/24 02:55:15;;;;;;;31.35;16.25;;;4.50;99.90;;;;;;5005660;28;20114;-58
2021/12/24 02:57:41;;;;;;;29.90;15.98;;;4.50;99.90;;;;;;5008607;28;20034;-57
2021/12/24 03:00:15;;;;;;;31.27;15.32;;;4.60;99.90;;;;;;4995867;28;20040;-57
2021/12/24 03:02:44;;;;;;;28.52;15.02;;;4.50;99.90;;;;;;4993482;28;20037;-58
2021/12/24 03:05:11;;;;;;;31.90;14.88;;;4.60;99.90;;;;;;4993219;28;20048;-57
2021/12/24 03:07:36;;;;;;;33.33;16.13;;;4.60;99.90;;;;;;4987889;28;20513;-58
2021/12/24 03:10:04;;;;;;;31.05;14.95;;;4.50;99.90;;;;;;5010212;28;20033;-55
2021/12/24 03:12:30;;;;;;;33.63;15.63;;;4.60;99.90;;;;;;5009476;28;20399;-57
2021/12/24 03:14:56;;;;;;;35.38;16.73;;;4.60;99.90;;;;;;5010189;28;20357;-56
2021/12/24 03:17:24;;;;;;;30.20;14.70;;;4.60;99.90;;;;;;5009201;28;20037;-54
2021/12/24 03:19:52;;;;;;;32.78;15.88;;;4.60;99.90;;;;;;5009905;28;20443;-56
2021/12/24 03:24:58;;;;;;;33.63;15.38;;;4.70;99.90;;;;;;5010365;28;20109;-53
2021/12/24 03:27:24;;;;;;;30.23;15.68;;;4.70;99.90;;;;;;5009644;28;20456;-55
2021/12/24 03:29:51;;;;;;;33.03;16.08;;;4.70;99.90;;;;;;5008362;28;20045;-55
2021/12/24 03:32:17;;;;;;;33.53;15.57;;;4.70;99.90;;;;;;5009117;28;20026;-57
2021/12/24 03:34:43;;;;;;;27.08;14.05;;;4.60;99.90;;;;;;5008607;28;20032;-58
2021/12/24 03:37:09;;;;;;;31.58;15.27;;;4.70;99.90;;;;;;5009202;28;20476;-58
2021/12/24 03:39:35;;;;;;;31.17;14.65;;;4.60;99.90;;;;;;5009674;28;20109;-57
2021/12/24 03:42:02;;;;;;;31.92;16.42;;;4.60;99.90;;;;;;5008494;28;20204;-57
2021/12/24 03:44:35;;;;;;;32.50;15.85;;;4.60;99.90;;;;;;5009942;28;20033;-55
2021/12/24 03:47:12;;;;;;;35.67;16.55;;;4.60;99.90;;;;;;5009301;28;20021;-55
2021/12/24 03:54:55;;;;;;;32.33;15.65;;;4.60;99.90;;;;;;5007132;28;20042;-56
2021/12/24 03:57:25;;;;;;;33.20;15.90;;;4.60;99.90;;;;;;5009956;28;20034;-57
2021/12/24 03:59:52;;;;;;;31.75;15.48;;;4.70;99.90;;;;;;5008403;28;20030;-58
2021/12/24 04:02:17;;;;;;;35.00;16.45;;;4.70;99.90;;;;;;5008534;28;20081;-58
2021/12/24 04:04:43;;;;;;;34.72;17.20;;;4.70;99.90;;;;;;5009004;28;20042;-59
2021/12/24 04:07:09;;;;;;;38.30;17.08;;;4.60;99.90;;;;;;5009254;28;20048;-58
2021/12/24 04:09:36;;;;;;;39.88;16.70;;;4.70;99.90;;;;;;5008575;28;20480;-59
2021/12/24 04:12:03;;;;;;;35.58;17.20;;;4.70;99.90;;;;;;5008630;28;20112;-58
2021/12/24 04:14:29;;;;;;;35.20;16.83;;;4.70;99.90;;;;;;5008624;28;20607;-57
2021/12/24 04:16:54;;;;;;;38.08;17.08;;;4.70;99.90;;;;;;5004178;28;20103;-58
2021/12/24 04:19:36;;;;;;;32.63;15.43;;;4.70;99.90;;;;;;5008437;28;20036;-58
2021/12/24 04:24:56;;;;;;;32.22;16.38;;;4.80;99.90;;;;;;5005787;28;20537;-57
2021/12/24 04:27:31;;;;;;;39.13;15.68;;;4.70;99.90;;;;;;5006783;28;20034;-57
2021/12/24 04:30:06;;;;;;;38.13;16.70;;;4.70;99.90;;;;;;5003380;28;20048;-57
2021/12/24 04:33:11;;;;;;;36.60;14.40;;;4.80;99.90;;;;;;5008337;28;20065;-58
2021/12/24 04:51:43;;;;;;;29.67;14.57;;;4.80;99.90;;;;;;5007185;28;20422;-57
2021/12/24 05:02:27;;;;;;;31.00;14.25;;;4.90;99.90;;;;;;5008255;28;20046;-54
2021/12/24 05:05:06;;;;;;;29.65;14.10;;;4.90;99.90;;;;;;5002642;28;20115;-57
2021/12/24 05:09:58;;;;;;;34.20;15.07;;;5.00;99.90;;;;;;5012592;28;20030;-55
2021/12/24 05:12:23;;;;;;;28.25;14.05;;;5.00;99.90;;;;;;5010965;28;20036;-58
2021/12/24 05:14:49;;;;;;;27.58;12.75;;;5.00;99.90;;;;;;5010972;28;20033;-57
2021/12/24 05:22:33;;;;;;;22.85;12.75;;;5.10;99.90;;;;;;5008502;28;20391;-58
2021/12/24 05:25:00;;;;;;;24.20;12.82;;;5.10;99.90;;;;;;5011180;28;20361;-58
2021/12/24 05:27:26;;;;;;;27.35;13.48;;;5.10;99.90;;;;;;5012409;28;20037;-55
2021/12/24 05:29:53;;;;;;;25.10;13.82;;;5.00;99.90;;;;;;5011463;28;20065;-59
2021/12/24 05:32:19;;;;;;;25.63;14.10;;;5.00;99.90;;;;;;5010780;28;20117;-57
2021/12/24 05:34:44;;;;;;;31.92;15.80;;;5.00;99.90;;;;;;5011917;28;20165;-54
2021/12/24 05:37:10;;;;;;;33.35;16.13;;;5.00;99.90;;;;;;5011459;28;20030;-56
2021/12/24 05:39:36;;;;;;;32.13;17.58;;;5.00;99.90;;;;;;5009613;28;20038;-53
2021/12/24 05:42:03;;;;;;;28.67;16.27;;;4.90;99.90;;;;;;5011362;28;20034;-55
2021/12/24 05:44:28;;;;;;;27.60;15.48;;;5.00;99.90;;;;;;5012959;28;20488;-54
2021/12/24 05:46:54;;;;;;;30.85;15.73;;;4.90;99.90;;;;;;5011026;28;20038;-58
2021/12/24 05:49:20;;;;;;;26.85;14.65;;;4.90;99.90;;;;;;5011222;28;20049;-56
2021/12/24 05:51:45;;;;;;;27.63;15.07;;;4.90;99.90;;;;;;5009373;28;20469;-56
2021/12/24 05:54:11;;;;;;;27.42;14.35;;;4.90;99.90;;;;;;5010148;28;20131;-57
2021/12/24 05:56:37;;;;;;;27.80;14.63;;;4.80;99.90;;;;;;5010990;28;20116;-57
2021/12/24 05:59:04;;;;;;;26.08;13.40;;;4.80;99.90;;;;;;5011396;28;20092;-58
2021/12/24 06:01:30;;;;;;;24.63;13.60;;;4.80;99.90;;;;;;5009324;28;20499;-57
2021/12/24 06:03:55;;;;;;;19.25;10.57;;;4.80;99.90;;;;;;5011602;28;20105;-55
2021/12/24 06:06:21;;;;;;;22.02;11.07;;;4.70;99.90;;;;;;5010067;28;20034;-54
2021/12/24 06:08:46;;;;;;;16.85;9.48;;;4.70;99.90;;;;;;5010803;28;20059;-57
2021/12/24 06:11:12;;;;;;;22.33;10.88;;;4.70;99.90;;;;;;5010577;28;20049;-58
2021/12/24 06:13:38;;;;;;;17.60;9.10;;;4.60;99.90;;;;;;5009929;28;20535;-57
2021/12/24 06:16:06;;;;;;;19.25;9.73;;;4.60;99.90;;;;;;5010704;28;20030;-56
2021/12/24 06:18:32;;;;;;;20.23;9.13;;;4.60;99.90;;;;;;5011294;28;20057;-56
2021/12/24 06:21:03;;;;;;;21.60;10.07;;;4.60;99.90;;;;;;5010863;28;20069;-57
2021/12/24 06:23:30;;;;;;;18.30;9.07;;;4.60;99.90;;;;;;5010070;28;20117;-58
2021/12/24 06:25:59;;;;;;;16.13;7.78;;;4.50;99.90;;;;;;5010984;28;20140;-57
2021/12/24 06:28:26;;;;;;;12.30;6.20;;;4.40;99.90;;;;;;5010987;28;20399;-56
2021/12/24 06:30:52;;;;;;;12.40;5.38;;;4.40;99.90;;;;;;5011122;28;20033;-56
2021/12/24 06:33:19;;;;;;;10.60;5.65;;;4.30;99.90;;;;;;5009783;28;20033;-56
2021/12/24 06:35:45;;;;;;;13.77;5.93;;;4.20;99.90;;;;;;5011394;28;20049;-56
2021/12/24 06:38:11;;;;;;;10.93;5.28;;;4.10;99.90;;;;;;5011452;28;20072;-58
2021/12/24 06:40:37;;;;;;;11.80;5.90;;;4.10;99.90;;;;;;5009389;28;20105;-58
2021/12/24 06:43:03;;;;;;;9.77;5.57;;;4.10;99.90;;;;;;5009794;28;20069;-58
2021/12/24 06:45:31;;;;;;;12.90;5.53;;;4.10;99.90;;;;;;5009623;28;20184;-57
2021/12/24 06:47:58;;;;;;;10.05;5.20;;;4.10;99.90;;;;;;5009408;28;20041;-58
2021/12/24 06:50:25;;;;;;;13.35;5.47;;;4.00;99.90;;;;;;5009499;28;20029;-58
2021/12/24 06:52:51;;;;;;;8.52;5.10;;;3.90;99.90;;;;;;5009156;28;20388;-57
2021/12/24 06:55:17;;;;;;;9.65;5.10;;;3.90;99.90;;;;;;5009112;28;20092;-58
2021/12/24 06:57:43;;;;;;;10.93;5.53;;;3.90;99.90;;;;;;5010815;28;20065;-60
2021/12/24 07:00:17;;;;;;;14.57;6.72;;;3.80;99.90;;;;;;5009664;28;20068;-58
2021/12/24 07:02:43;;;;;;;14.30;7.68;;;3.80;99.90;;;;;;5009039;28;20396;-59
2021/12/24 07:05:09;;;;;;;19.55;9.65;;;3.80;99.90;;;;;;5010116;28;20034;-58
2021/12/24 07:07:35;;;;;;;15.20;7.65;;;3.80;99.90;;;;;;5009419;28;20486;-56
2021/12/24 07:10:01;;;;;;;13.75;7.07;;;3.70;99.90;;;;;;5010445;28;20112;-56
2021/12/24 07:12:27;;;;;;;12.82;7.22;;;3.70;99.90;;;;;;5009127;28;20022;-58
2021/12/24 07:14:52;;;;;;;13.77;7.43;;;3.70;99.90;;;;;;5008658;28;20118;-55
2021/12/24 07:17:18;;;;;;;14.13;8.10;;;3.60;99.90;;;;;;5010705;28;20435;-58
2021/12/24 07:19:44;;;;;;;12.48;7.35;;;3.60;99.90;;;;;;5008868;28;20034;-58
2021/12/24 07:22:10;;;;;;;13.20;9.43;;;3.60;99.90;;;;;;5009266;28;20141;-58
2021/12/24 07:24:36;;;;;;;12.55;7.13;;;3.60;99.90;;;;;;5009507;28;20369;-57
2021/12/24 07:27:02;;;;;;;14.68;7.90;;;3.60;99.90;;;;;;5010172;28;20041;-58
2021/12/24 07:29:28;;;;;;;13.45;7.30;;;3.60;99.90;;;;;;5008533;28;20022;-58
2021/12/24 07:31:54;;;;;;;11.52;6.97;;;3.60;99.90;;;;;;5009497;28;20038;-56
2021/12/24 07:34:20;;;;;;;12.57;6.90;;;3.50;99.90;;;;;;5009252;28;20487;-57
2021/12/24 07:36:45;;;;;;;13.45;7.55;;;3.40;99.90;;;;;;5001262;28;20503;-55
2021/12/24 07:39:11;;;;;;;16.52;7.93;;;3.40;99.90;;;;;;4995725;28;20111;-56
2021/12/24 07:41:37;;;;;;;15.18;7.95;;;3.40;99.90;;;;;;5006837;28;20085;-57
2021/12/24 07:44:03;;;;;;;15.32;8.40;;;3.40;99.90;;;;;;5002226;28;20042;-56
2021/12/24 07:46:40;;;;;;;13.80;8.00;;;3.40;99.90;;;;;;5004283;28;20032;-58
2021/12/24 07:49:18;;;;;;;17.10;8.48;;;3.30;99.90;;;;;;5009112;28;20033;-57
2021/12/24 07:54:22;;;;;;;18.25;7.30;;;3.20;99.90;;;;;;5007900;28;20424;-59
2021/12/24 07:56:48;;;;;;;16.92;7.28;;;3.10;99.90;;;;;;5009617;28;20217;-58
2021/12/24 07:59:15;;;;;;;11.57;7.10;;;3.10;99.90;;;;;;5008980;28;20053;-59
2021/12/24 08:01:44;;;;;;;14.25;7.18;;;3.10;99.90;;;;;;5002793;28;20197;-59
2021/12/24 08:04:10;;;;;;;18.83;7.60;;;3.20;99.90;;;;;;5009370;28;20038;-59
2021/12/24 08:06:36;;;;;;;14.20;6.78;;;3.20;99.90;;;;;;5006708;28;20022;-59
2021/12/24 08:09:02;;;;;;;14.93;7.45;;;3.20;99.90;;;;;;5008328;28;20503;-59
2021/12/24 08:11:28;;;;;;;16.45;7.97;;;3.20;99.90;;;;;;5009629;28;20090;-59
2021/12/24 08:13:54;;;;;;;18.17;8.15;;;3.20;99.90;;;;;;5008835;28;20117;-59
2021/12/24 08:16:20;;;;;;;14.40;8.35;;;3.20;99.90;;;;;;4992327;28;20043;-60
2021/12/24 08:18:46;;;;;;;12.30;7.00;;;3.20;99.90;;;;;;5008572;28;20026;-59
2021/12/24 08:21:12;;;;;;;13.82;7.70;;;3.10;99.90;;;;;;5006276;28;20040;-59
2021/12/24 08:23:38;;;;;;;18.35;8.73;;;3.10;99.90;;;;;;5008326;28;20030;-59
2021/12/24 08:26:04;;;;;;;16.00;7.72;;;3.10;99.90;;;;;;5007961;28;20076;-59
2021/12/24 08:28:29;;;;;;;14.32;6.97;;;3.10;99.90;;;;;;5006925;28;20034;-59
2021/12/24 08:30:56;;;;;;;13.50;7.30;;;3.10;99.90;;;;;;5008128;28;20151;-57
2021/12/24 08:33:22;;;;;;;16.92;7.78;;;3.10;99.90;;;;;;5005419;28;20053;-59
2021/12/24 08:35:48;;;;;;;13.20;7.07;;;3.10;99.90;;;;;;5009501;28;20464;-59
2021/12/24 08:38:14;;;;;;;14.88;7.25;;;3.10;99.90;;;;;;5010546;28;20038;-61
2021/12/24 08:40:39;;;;;;;16.63;7.47;;;3.10;99.90;;;;;;5012255;28;20390;-62
2021/12/24 08:43:05;;;;;;;16.83;7.70;;;3.00;99.90;;;;;;5010963;28;20134;-60
2021/12/24 08:45:31;;;;;;;15.98;7.82;;;3.00;99.90;;;;;;5011032;28;20133;-59
2021/12/24 08:47:56;;;;;;;15.50;8.10;;;3.10;99.90;;;;;;5015755;28;20407;-59
2021/12/24 08:50:22;;;;;;;19.40;8.05;;;3.10;99.90;;;;;;5013634;28;20423;-59
2021/12/24 08:52:47;;;;;;;13.40;7.80;;;3.10;99.90;;;;;;5010753;28;20041;-59
2021/12/24 08:55:15;;;;;;;14.38;7.20;;;3.00;99.90;;;;;;5014828;28;20038;-60
2021/12/24 08:57:40;;;;;;;13.80;7.43;;;3.00;99.90;;;;;;5011251;28;20033;-60
2021/12/24 09:00:09;;;;;;;12.45;6.70;;;2.90;99.90;;;;;;5013544;28;20030;-60
2021/12/24 09:02:36;;;;;;;12.30;6.68;;;2.90;99.90;;;;;;5011490;28;20526;-61
2021/12/24 09:05:03;;;;;;;15.13;7.40;;;2.90;99.90;;;;;;5013272;28;20049;-60
2021/12/24 09:07:29;;;;;;;12.43;7.00;;;2.90;99.90;;;;;;5011481;28;20502;-60
2021/12/24 09:09:54;;;;;;;12.02;7.72;;;2.90;99.90;;;;;;5013594;28;20037;-60
2021/12/24 09:12:20;;;;;;;12.27;7.47;;;2.90;99.90;;;;;;5011263;28;20038;-60
2021/12/24 09:14:46;;;;;;;12.23;7.25;;;2.90;99.90;;;;;;5013711;28;20045;-61
2021/12/24 09:17:11;;;;;;;13.07;7.57;;;2.90;99.90;;;;;;5013307;28;20040;-60
2021/12/24 09:19:44;;;;;;;15.70;7.93;;;3.00;99.90;;;;;;5013768;28;20471;-60
2021/12/24 09:22:15;;;;;;;15.25;7.90;;;2.90;99.90;;;;;;5013254;28;20034;-59
2021/12/24 09:24:42;;;;;;;13.43;7.95;;;2.90;99.90;;;;;;5013761;28;20030;-60
2021/12/24 09:27:08;;;;;;;14.65;8.48;;;2.90;99.90;;;;;;5013163;28;20129;-60
2021/12/24 09:29:34;;;;;;;12.50;7.63;;;2.90;99.90;;;;;;5012918;28;20050;-60
2021/12/24 09:31:59;;;;;;;14.23;8.57;;;2.80;99.90;;;;;;5012027;28;20042;-60
2021/12/24 09:34:25;;;;;;;15.82;8.68;;;2.80;99.90;;;;;;5012730;28;20026;-60
2021/12/24 09:36:52;;;;;;;14.90;8.48;;;2.80;99.90;;;;;;5013033;28;20507;-60
2021/12/24 09:39:18;;;;;;;16.10;9.35;;;2.70;99.90;;;;;;5012957;28;20117;-60
2021/12/24 09:41:44;;;;;;;18.60;10.10;;;2.70;99.90;;;;;;5012266;28;20041;-59
2021/12/24 09:44:10;;;;;;;20.30;9.90;;;2.70;99.90;;;;;;5012624;28;20026;-58
2021/12/24 09:46:40;;;;;;;16.48;9.48;;;2.70;99.90;;;;;;5012580;28;20483;-59
2021/12/24 09:49:07;;;;;;;16.90;9.07;;;2.60;99.90;;;;;;5012723;28;20037;-58
2021/12/24 09:51:43;;;;;;;17.02;9.48;;;2.60;99.90;;;;;;5011736;28;20036;-61
2021/12/24 09:54:12;;;;;;;15.85;9.15;;;2.50;99.90;;;;;;5011948;28;20026;-58
2021/12/24 09:56:39;;;;;;;16.15;9.10;;;2.40;99.90;;;;;;5011548;28;20141;-58
2021/12/24 09:59:05;;;;;;;17.63;9.13;;;2.40;99.90;;;;;;5012324;28;20029;-58
2021/12/24 10:01:33;;;;;;;17.40;9.65;;;2.40;99.90;;;;;;5009871;28;20042;-59
2021/12/24 10:04:05;;;;;;;20.13;9.93;;;2.30;99.90;;;;;;5010892;28;20407;-59
2021/12/24 10:06:31;;;;;;;18.70;9.65;;;2.30;99.90;;;;;;5011482;28;20092;-60
2021/12/24 10:09:08;;;;;;;14.93;8.43;;;2.30;99.90;;;;;;5010739;28;20054;-60
2021/12/24 10:11:50;;;;;;;13.23;8.25;;;2.20;99.90;;;;;;5007890;28;20053;-60
2021/12/24 10:14:20;;;;;;;12.68;7.93;;;2.20;99.90;;;;;;5005567;28;20029;-59
2021/12/24 10:16:49;;;;;;;14.32;8.18;;;2.20;99.90;;;;;;5011357;28;20022;-60
2021/12/24 10:19:16;;;;;;;13.45;7.80;;;2.20;99.90;;;;;;5011685;28;20038;-58
2021/12/24 10:21:44;;;;;;;14.20;8.07;;;2.10;99.90;;;;;;5010967;28;20030;-60
2021/12/24 10:24:17;;;;;;;14.52;8.18;;;2.10;99.90;;;;;;5010588;28;20547;-60
2021/12/24 10:26:46;;;;;;;14.48;8.35;;;2.10;99.90;;;;;;5008904;28;20030;-60
2021/12/24 10:29:32;;;;;;;14.93;8.65;;;2.20;99.90;;;;;;5010307;28;20472;-60
2021/12/24 10:32:07;;;;;;;13.88;8.38;;;2.20;99.90;;;;;;4999394;28;20033;-60
2021/12/24 10:34:35;;;;;;;18.17;9.23;;;2.10;99.90;;;;;;5009793;28;20061;-59
2021/12/24 10:37:05;;;;;;;17.10;9.60;;;2.10;99.90;;;;;;5006578;28;20025;-60
2021/12/24 10:39:34;;;;;;;15.65;9.52;;;2.10;99.90;;;;;;5002803;28;20030;-60
2021/12/24 10:42:01;;;;;;;18.20;10.10;;;2.20;99.90;;;;;;5008452;28;20048;-60
2021/12/24 10:44:33;;;;;;;19.15;10.63;;;2.10;99.90;;;;;;5005945;28;20030;-60
2021/12/24 10:47:08;;;;;;;21.95;12.38;;;2.10;99.90;;;;;;5008696;28;20048;-60
2021/12/24 10:50:05;;;;;;;17.92;9.95;;;2.10;99.90;;;;;;5008974;28;20045;-60
2021/12/24 10:53:14;;;;;;;16.90;10.20;;;2.10;99.90;;;;;;5005621;28;20042;-60
2021/12/24 10:55:18;;;;;;;19.90;11.18;;;2.20;99.90;;;;;;5001629;28;20090;-60
2021/12/24 10:57:46;;;;;;;17.60;10.23;;;2.20;99.90;;;;;;5006224;28;20069;-60
2021/12/24 11:00:20;;;;;;;14.77;9.48;;;2.30;99.90;;;;;;5008876;28;20720;-60
2021/12/24 11:03:01;;;;;;;15.93;9.38;;;2.30;99.90;;;;;;5008368;28;20034;-61
2021/12/24 11:05:41;;;;;;;16.52;9.38;;;2.40;99.90;;;;;;5006689;28;20391;-61
2021/12/24 11:08:19;;;;;;;15.60;9.20;;;2.40;99.90;;;;;;5027137;28;20026;-59
2021/12/24 11:10:47;;;;;;;18.50;9.02;;;2.40;99.90;;;;;;5002245;28;20042;-61
2021/12/24 11:13:17;;;;;;;14.18;7.90;;;2.50;99.90;;;;;;5007773;28;20068;-62
2021/12/24 11:15:50;;;;;;;16.45;9.52;;;2.50;99.90;;;;;;5005847;28;20022;-60
2021/12/24 11:18:29;;;;;;;14.25;8.30;;;2.40;99.90;;;;;;5008398;28;20033;-62
2021/12/24 11:20:59;;;;;;;13.52;7.75;;;2.50;99.90;;;;;;5002586;28;20041;-61
2021/12/24 11:23:34;;;;;;;15.77;10.30;;;2.50;99.90;;;;;;5035797;28;20266;-60
2021/12/24 11:26:30;;;;;;;16.35;9.80;;;2.50;99.90;;;;;;5028499;28;20030;-60
2021/12/24 11:28:57;;;;;;;16.48;9.60;;;2.50;99.90;;;;;;5027041;28;20045;-59
2021/12/24 11:31:32;;;;;;;15.07;9.20;;;2.50;99.90;;;;;;5027310;28;20030;-62
2021/12/24 11:33:58;;;;;;;14.50;9.15;;;2.50;99.90;;;;;;5028997;28;20038;-60
2021/12/24 11:36:26;;;;;;;14.18;9.38;;;2.50;99.90;;;;;;5028717;28;20022;-60
2021/12/24 11:38:54;;;;;;;15.50;9.02;;;2.50;99.90;;;;;;5028206;28;20511;-59
2021/12/24 11:41:25;;;;;;;18.52;11.02;;;2.60;99.90;;;;;;5028731;28;20030;-60
2021/12/24 11:43:52;;;;;;;17.10;9.82;;;2.60;99.90;;;;;;5023510;28;20112;-58
2021/12/24 11:46:21;;;;;;;19.73;11.25;;;2.50;99.90;;;;;;5024959;28;20108;-58
2021/12/24 11:48:49;;;;;;;20.35;11.25;;;2.50;99.90;;;;;;5024043;28;20402;-59
2021/12/24 11:51:29;;;;;;;21.35;12.05;;;2.50;99.90;;;;;;5026015;28;20026;-60
2021/12/24 11:54:00;;;;;;;21.50;12.13;;;2.50;99.90;;;;;;5024888;28;20036;-59
2021/12/24 11:56:25;;;;;;;23.55;12.40;;;2.50;99.90;;;;;;5026058;28;20096;-63
2021/12/24 11:58:55;;;;;;;27.48;13.75;;;2.50;99.90;;;;;;5026614;28;20102;-59
2021/12/24 12:01:25;;;;;;;26.05;13.63;;;2.40;99.90;;;;;;5025833;28;20018;-59
2021/12/24 12:03:58;;;;;;;25.23;13.90;;;2.50;99.90;;;;;;5024501;28;20041;-60
2021/12/24 12:06:24;;;;;;;25.27;13.77;;;2.40;99.90;;;;;;5026130;28;20105;-59
2021/12/24 12:08:52;;;;;;;32.58;15.48;;;2.40;99.90;;;;;;5030156;28;20437;-59
2021/12/24 12:11:24;;;;;;;31.33;15.23;;;2.40;99.90;;;;;;5038715;28;20501;-57
2021/12/24 12:13:52;;;;;;;32.55;16.00;;;2.40;99.90;;;;;;5029770;28;20453;-61
2021/12/24 12:16:21;;;;;;;29.17;15.60;;;2.30;99.90;;;;;;5032052;28;20025;-59
2021/12/24 12:19:00;;;;;;;27.58;14.95;;;2.30;99.90;;;;;;5033619;28;20026;-60
2021/12/24 12:21:37;;;;;;;28.33;15.18;;;2.30;99.90;;;;;;5025709;28;20038;-59
2021/12/24 12:26:41;;;;;;;30.70;15.90;;;2.30;99.90;;;;;;5025757;28;20045;-57
2021/12/24 12:29:19;;;;;;;29.83;15.48;;;2.30;99.90;;;;;;5022496;28;20029;-58
2021/12/24 12:31:45;;;;;;;31.95;16.08;;;2.30;99.90;;;;;;5011676;28;20088;-59
2021/12/24 12:34:39;;;;;;;29.77;15.38;;;2.30;99.90;;;;;;5017196;28;20037;-59
2021/12/24 12:37:24;;;;;;;29.08;15.82;;;2.30;99.90;;;;;;5013228;28;20029;-59
2021/12/24 12:40:06;;;;;;;30.25;15.05;;;2.30;99.90;;;;;;5021532;28;20034;-56
2021/12/24 12:42:54;;;;;;;28.00;14.80;;;2.40;99.90;;;;;;4998718;28;20120;-61
2021/12/24 12:45:42;;;;;;;28.38;14.85;;;2.40;99.90;;;;;;5009872;28;20161;-61
2021/12/24 12:48:16;;;;;;;27.33;15.32;;;2.40;99.90;;;;;;5001421;28;20034;-59
2021/12/24 12:50:51;;;;;;;26.13;15.02;;;2.50;99.90;;;;;;5012505;28;20026;-59
2021/12/24 12:53:35;;;;;;;27.05;14.65;;;2.50;99.90;;;;;;5011682;28;20599;-60
2021/12/24 12:56:19;;;;;;;29.98;16.48;;;2.50;99.90;;;;;;5008883;28;20539;-59
2021/12/24 12:58:59;;;;;;;31.42;16.45;;;2.50;99.90;;;;;;5004018;28;20022;-60
2021/12/24 13:01:26;;;;;;;28.80;15.82;;;2.50;99.90;;;;;;5009358;28;20124;-56
2021/12/24 13:03:57;;;;;;;32.25;17.02;;;2.50;99.90;;;;;;5011592;28;20018;-61
2021/12/24 13:06:36;;;;;;;31.83;17.05;;;2.40;99.90;;;;;;5017371;28;20029;-52
2021/12/24 13:09:08;;;;;;;41.78;20.48;;;2.30;99.90;;;;;;5012693;28;20072;-52
2021/12/24 13:11:37;;;;;;;40.92;20.65;;;2.40;99.90;;;;;;5011256;28;20583;-56
2021/12/24 13:14:03;;;;;;;38.40;20.52;;;2.40;99.90;;;;;;5010939;28;20038;-58
2021/12/24 13:16:35;;;;;;;41.05;21.02;;;2.40;99.90;;;;;;5009791;28;20479;-57
2021/12/24 13:24:38;;;;;;;35.28;19.85;;;2.50;99.90;;;;;;4992062;28;20033;-57
2021/12/24 13:27:04;;;;;;;38.45;20.23;;;2.50;99.90;;;;;;5005451;28;20026;-59
2021/12/24 13:29:30;;;;;;;36.85;19.23;;;2.50;99.90;;;;;;5011485;28;20243;-58
2021/12/24 13:31:57;;;;;;;40.17;20.65;;;2.50;99.90;;;;;;5011075;28;20030;-57
2021/12/24 13:34:25;;;;;;;42.13;21.40;;;2.50;99.90;;;;;;5006694;28;20530;-61
2021/12/24 13:36:52;;;;;;;36.60;20.02;;;2.50;99.90;;;;;;5009355;28;20029;-60
2021/12/24 13:39:23;;;;;;;37.47;19.17;;;2.60;99.90;;;;;;5008367;28;20073;-60
2021/12/24 13:42:03;;;;;;;34.17;18.85;;;2.50;99.90;;;;;;5013491;28;20085;-59
2021/12/24 13:44:31;;;;;;;37.22;19.15;;;2.50;99.90;;;;;;4998108;28;20041;-60
2021/12/24 13:47:33;;;;;;;36.85;19.67;;;2.40;99.90;;;;;;5019983;28;20024;-65
2021/12/24 13:50:29;;;;;;;45.47;21.30;;;2.40;99.90;;;;;;5006760;28;20031;-62
2021/12/24 13:55:46;;;;;;;36.15;19.38;;;2.60;99.90;;;;;;4991672;28;20096;-60
2021/12/24 13:58:14;;;;;;;37.05;19.25;;;2.50;99.90;;;;;;5009135;28;20056;-60
2021/12/24 14:00:55;;;;;;;43.63;21.35;;;2.40;99.90;;;;;;5009921;28;20059;-59
2021/12/24 14:03:29;;;;;;;38.15;18.73;;;2.40;99.90;;;;;;5010406;28;20038;-60
2021/12/24 14:06:00;;;;;;;44.60;20.85;;;2.40;99.90;;;;;;5011276;28;20061;-58
2021/12/24 14:08:32;;;;;;;40.55;19.60;;;2.40;99.90;;;;;;5010836;28;20483;-60
2021/12/24 14:11:22;;;;;;;44.60;20.52;;;2.40;99.90;;;;;;5011103;28;20116;-60
2021/12/24 14:13:56;;;;;;;44.40;20.15;;;2.40;99.90;;;;;;5010546;28;20030;-59
2021/12/24 14:19:17;;;;;;;51.05;21.30;;;2.40;99.90;;;;;;5010976;28;20062;-59
2021/12/24 14:21:45;;;;;;;50.35;20.10;;;2.40;99.90;;;;;;5009934;28;20464;-64
2021/12/24 14:24:27;;;;;;;49.78;21.15;;;2.30;99.90;;;;;;5010793;28;20407;-59
2021/12/24 14:26:55;;;;;;;54.83;21.63;;;2.20;99.90;;;;;;5011038;28;20029;-59
2021/12/24 14:29:33;;;;;;;53.60;21.45;;;2.30;99.90;;;;;;5010371;28;20385;-57
2021/12/24 14:32:03;;;;;;;51.30;21.63;;;2.20;99.90;;;;;;5009950;28;20123;-58
2021/12/24 14:34:35;;;;;;;50.95;21.17;;;2.20;99.90;;;;;;5006936;28;20030;-57
2021/12/24 14:37:26;;;;;;;54.42;22.48;;;2.20;99.90;;;;;;5003365;28;20542;-59
2021/12/24 14:39:59;;;;;;;51.15;20.77;;;2.20;99.90;;;;;;5010213;28;20399;-63
2021/12/24 14:42:36;;;;;;;50.92;22.65;;;2.20;99.90;;;;;;5006019;28;20048;-62
2021/12/24 14:45:22;;;;;;;56.63;23.23;;;2.20;99.90;;;;;;4999061;28;20395;-62
2021/12/24 14:48:08;;;;;;;51.50;21.30;;;2.20;99.90;;;;;;5007663;28;20476;-64